Time;durP1;ratioP1;P1;durP2;ratioP2;P2;SDS_P1;SDS_P2;PMS_P1;PMS_P2;Temp;Humidity;BMP_temperature;BMP_pressure;BME280_temperature;BME280_humidity;BME280_pressure;Samples;Min_cycle;Max_cycle;Signal;HPM_P1;HPM_P2
2023/05/13 00:00:42;;;;;;;;;;;;;;;;;;5129248;27;19946;-46
2023/05/13 05:10:25;;;;;;;;;;;;;;;;;;5109717;28;19965;-49
2023/05/13 05:12:51;;;;;;;;;;;;;;;;;;5110153;28;19920;-46
2023/05/13 05:15:17;;;;;;;;;;;;;;;;;;5110701;28;20330;-49
2023/05/13 05:17:44;;;;;;;;;;;;;;;;;;5091693;28;19912;-47
2023/05/13 05:20:10;;;;;;;;;;;;;;;;;;5110266;28;19916;-47
2023/05/13 05:22:35;;;;;;;;;;;;;;;;;;5107036;28;20234;-48
2023/05/13 05:25:02;;;;;;;;;;;;;;;;;;5107962;28;19911;-48
2023/05/13 05:27:28;;;;;;;;;;;;;;;;;;5110305;28;19912;-48
2023/05/13 05:29:54;;;;;;;;;;;;;;;;;;5110175;28;19965;-48
2023/05/13 05:32:20;;;;;;;;;;;;;;;;;;5110092;28;19908;-46
2023/05/13 05:34:46;;;;;;;;;;;;;;;;;;5109341;28;19912;-46
2023/05/13 05:37:12;;;;;;;;;;;;;;;;;;5109818;28;20425;-45
2023/05/13 05:39:40;;;;;;;;;;;;;;;;;;5109876;28;19970;-45
2023/05/13 05:42:05;;;;;;;;;;;;;;;;;;5110013;28;19968;-45
2023/05/13 05:44:31;;;;;;;;;;;;;;;;;;5108993;28;19916;-45
2023/05/13 05:46:57;;;;;;;;;;;;;;;;;;5108972;28;19916;-45
2023/05/13 05:49:24;;;;;;;;;;;;;;;;;;5109770;28;19919;-46
2023/05/13 05:51:50;;;;;;;;;;;;;;;;;;5109591;28;19964;-45
2023/05/13 05:54:16;;;;;;;;;;;;;;;;;;5104310;28;20030;-46
2023/05/13 05:56:42;;;;;;;;;;;;;;;;;;5109847;28;20008;-46
2023/05/13 05:59:08;;;;;;;;;;;;;;;;;;5109807;28;20438;-47
2023/05/13 06:01:35;;;;;;;;;;;;;;;;;;5108555;28;19920;-45
2023/05/13 06:04:01;;;;;;;;;;;;;;;;;;5095103;28;19919;-47
2023/05/13 06:06:27;;;;;;;;;;;;;;;;;;5088678;28;19912;-46
2023/05/13 06:08:53;;;;;;;;;;;;;;;;;;5108689;28;20301;-45
2023/05/13 06:11:19;;;;;;;;;;;;;;;;;;5107701;28;19919;-44
2023/05/13 06:13:45;;;;;;;;;;;;;;;;;;5107650;28;19981;-45
2023/05/13 06:16:12;;;;;;;;;;;;;;;;;;5110550;28;20371;-45
2023/05/13 06:18:38;;;;;;;;;;;;;;;;;;5110342;28;20018;-46
2023/05/13 06:21:04;;;;;;;;;;;;;;;;;;5110755;28;20439;-46
2023/05/13 06:23:30;;;;;;;;;;;;;;;;;;5096330;28;19916;-44
2023/05/13 06:25:58;;;;;;;;;;;;;;;;;;5106851;28;19916;-45
2023/05/13 06:28:24;;;;;;;;;;;;;;;;;;5107908;28;20006;-45
2023/05/13 06:30:50;;;;;;;;;;;;;;;;;;5110051;28;20018;-46
2023/05/13 06:33:16;;;;;;;;;;;;;;;;;;5109412;28;19965;-45
2023/05/13 06:35:46;;;;;;;;;;;;;;;;;;5109216;28;20272;-47
2023/05/13 06:38:16;;;;;;;;;;;;;;;;;;5108800;28;19922;-47
2023/05/13 06:40:42;;;;;;;;;;;;;;;;;;5108884;28;19934;-46
2023/05/13 06:43:08;;;;;;;;;;;;;;;;;;5093592;28;19920;-47
2023/05/13 06:45:34;;;;;;;;;;;;;;;;;;5110266;28;19912;-46
2023/05/13 06:48:00;;;;;;;;;;;;;;;;;;5109508;28;19916;-47
2023/05/13 06:50:26;;;;;;;;;;;;;;;;;;5110024;28;19908;-46
2023/05/13 06:52:52;;;;;;;;;;;;;;;;;;5108968;28;19919;-46
2023/05/13 06:55:18;;;;;;;;;;;;;;;;;;5109949;28;20010;-45
2023/05/13 06:57:46;;;;;;;;;;;;;;;;;;5109826;28;19965;-45
2023/05/13 07:00:11;;;;;;;;;;;;;;;;;;5109854;28;19965;-47
2023/05/13 07:02:38;;;;;;;;;;;;;;;;;;5090693;28;20394;-44
2023/05/13 07:05:04;;;;;;;;;;;;;;;;;;5109136;28;20582;-47
2023/05/13 07:07:30;;;;;;;;;;;;;;;;;;5109611;28;19907;-49
2023/05/13 07:09:56;;;;;;;;;;;;;;;;;;5107355;28;19907;-48
2023/05/13 07:12:22;;;;;;;;;;;;;;;;;;5106542;28;19923;-46
2023/05/13 07:14:47;;;;;;;;;;;;;;;;;;5094925;28;19916;-48
2023/05/13 07:17:13;;;;;;;;;;;;;;;;;;5092303;28;20188;-45
2023/05/13 07:19:40;;;;;;;;;;;;;;;;;;5100038;28;19924;-44
2023/05/13 07:22:06;;;;;;;;;;;;;;;;;;5097004;28;19912;-46
2023/05/13 07:24:32;;;;;;;;;;;;;;;;;;5098798;28;19912;-45
2023/05/13 07:26:58;;;;;;;;;;;;;;;;;;5103846;28;19920;-48
2023/05/13 07:29:24;;;;;;;;;;;;;;;;;;5100968;28;19971;-45
2023/05/13 07:31:50;;;;;;;;;;;;;;;;;;5107185;28;19919;-45
2023/05/13 07:34:16;;;;;;;;;;;;;;;;;;5109235;28;19916;-46
2023/05/13 07:36:42;;;;;;;;;;;;;;;;;;5106817;28;19915;-46
2023/05/13 07:39:08;;;;;;;;;;;;;;;;;;5105999;28;19920;-45
2023/05/13 07:41:34;;;;;;;;;;;;;;;;;;5106133;28;19938;-48
2023/05/13 07:44:00;;;;;;;;;;;;;;;;;;5107165;28;19915;-46
2023/05/13 07:46:26;;;;;;;;;;;;;;;;;;5106393;28;19922;-46
2023/05/13 07:48:52;;;;;;;;;;;;;;;;;;5108281;28;19934;-48
2023/05/13 07:51:18;;;;;;;;;;;;;;;;;;5108600;28;20022;-47
2023/05/13 07:53:45;;;;;;;;;;;;;;;;;;5107274;28;19916;-46
2023/05/13 07:56:11;;;;;;;;;;;;;;;;;;5105468;28;19962;-45
2023/05/13 07:58:37;;;;;;;;;;;;;;;;;;5108868;28;19916;-46
2023/05/13 08:01:04;;;;;;;;;;;;;;;;;;5105135;28;20032;-46
2023/05/13 08:03:30;;;;;;;;;;;;;;;;;;5107749;28;19939;-46
2023/05/13 08:05:55;;;;;;;;;;;;;;;;;;5108177;28;19943;-47
2023/05/13 08:08:21;;;;;;;;;;;;;;;;;;5106801;28;19908;-47
2023/05/13 08:10:47;;;;;;;;;;;;;;;;;;5110947;28;19994;-46
2023/05/13 08:13:13;;;;;;;;;;;;;;;;;;5112096;28;19911;-45
2023/05/13 08:15:39;;;;;;;;;;;;;;;;;;5112113;28;19934;-47
2023/05/13 08:18:05;;;;;;;;;;;;;;;;;;5111758;28;19908;-46
2023/05/13 08:20:31;;;;;;;;;;;;;;;;;;5132017;27;20305;-47
2023/05/13 08:22:57;;;;;;;;;;;;;;;;;;5101369;28;19915;-45
2023/05/13 08:25:23;;;;;;;;;;;;;;;;;;5115647;27;19915;-46
2023/05/13 08:27:49;;;;;;;;;;;;;;;;;;5132531;27;20410;-45
2023/05/13 08:30:15;;;;;;;;;;;;;;;;;;5125935;27;19912;-46
2023/05/13 08:32:41;;;;;;;;;;;;;;;;;;5132317;27;19912;-46
2023/05/13 08:35:07;;;;;;;;;;;;;;;;;;5132417;27;19919;-47
2023/05/13 08:37:33;;;;;;;;;;;;;;;;;;5127296;27;19934;-45
2023/05/13 08:40:00;;;;;;;;;;;;;;;;;;5113794;27;20014;-46
2023/05/13 08:42:26;;;;;;;;;;;;;;;;;;5118534;27;20378;-48
2023/05/13 08:44:52;;;;;;;;;;;;;;;;;;5112009;27;19912;-46
2023/05/13 08:47:18;;;;;;;;;;;;;;;;;;5114971;27;19951;-45
2023/05/13 08:49:44;;;;;;;;;;;;;;;;;;5111412;28;19922;-46
2023/05/13 08:52:10;;;;;;;;;;;;;;;;;;5111637;28;20010;-46
2023/05/13 08:54:37;;;;;;;;;;;;;;;;;;5110867;28;20125;-48
2023/05/13 08:57:03;;;;;;;;;;;;;;;;;;5110218;28;19951;-47
2023/05/13 08:59:29;;;;;;;;;;;;;;;;;;5109954;28;19915;-46
2023/05/13 09:01:55;;;;;;;;;;;;;;;;;;5110249;28;19934;-46
2023/05/13 09:04:21;;;;;;;;;;;;;;;;;;5117914;27;19935;-47
2023/05/13 09:06:47;;;;;;;;;;;;;;;;;;5125546;27;19916;-50
2023/05/13 09:09:13;;;;;;;;;;;;;;;;;;5121666;27;19914;-46
2023/05/13 09:11:39;;;;;;;;;;;;;;;;;;5130052;27;19927;-46
2023/05/13 09:14:10;;;;;;;;;;;;;;;;;;5130418;27;20374;-49
2023/05/13 09:16:36;;;;;;;;;;;;;;;;;;5130612;27;19915;-47
2023/05/13 09:19:02;;;;;;;;;;;;;;;;;;5129532;27;20004;-48
2023/05/13 09:21:28;;;;;;;;;;;;;;;;;;5129213;27;19908;-48
2023/05/13 09:23:54;;;;;;;;;;;;;;;;;;5130223;27;19916;-45
2023/05/13 09:26:20;;;;;;;;;;;;;;;;;;5130065;27;19953;-46
2023/05/13 09:28:46;;;;;;;;;;;;;;;;;;5128638;27;20279;-47
2023/05/13 09:31:11;;;;;;;;;;;;;;;;;;5127074;27;19958;-49
2023/05/13 09:33:37;;;;;;;;;;;;;;;;;;5130100;27;20338;-46
2023/05/13 09:36:04;;;;;;;;;;;;;;;;;;5130718;27;19908;-46
2023/05/13 09:38:33;;;;;;;;;;;;;;;;;;5130421;27;19918;-49
2023/05/13 09:40:59;;;;;;;;;;;;;;;;;;5130445;27;19919;-46
2023/05/13 09:43:25;;;;;;;;;;;;;;;;;;5129833;27;19912;-46
2023/05/13 09:45:51;;;;;;;;;;;;;;;;;;5129819;27;19907;-47
2023/05/13 09:48:18;;;;;;;;;;;;;;;;;;5129765;27;19963;-49
2023/05/13 09:50:44;;;;;;;;;;;;;;;;;;5129959;27;20134;-49
2023/05/13 09:53:10;;;;;;;;;;;;;;;;;;5129695;27;19912;-49
2023/05/13 09:55:36;;;;;;;;;;;;;;;;;;5129665;27;19960;-48
2023/05/13 09:58:02;;;;;;;;;;;;;;;;;;5130095;27;19907;-47
2023/05/13 10:00:28;;;;;;;;;;;;;;;;;;5129272;27;20005;-46
2023/05/13 10:02:54;;;;;;;;;;;;;;;;;;5129332;27;20235;-46
2023/05/13 10:05:20;;;;;;;;;;;;;;;;;;5130804;27;19911;-49
2023/05/13 10:07:46;;;;;;;;;;;;;;;;;;5130472;27;19986;-46
2023/05/13 10:10:12;;;;;;;;;;;;;;;;;;5130581;27;19914;-49
2023/05/13 10:12:38;;;;;;;;;;;;;;;;;;5130267;27;19916;-46
2023/05/13 10:15:04;;;;;;;;;;;;;;;;;;5130755;27;20084;-45
2023/05/13 10:17:30;;;;;;;;;;;;;;;;;;5131054;27;19917;-48
2023/05/13 10:19:56;;;;;;;;;;;;;;;;;;5130210;27;19915;-46
2023/05/13 10:22:22;;;;;;;;;;;;;;;;;;5130362;27;19957;-47
2023/05/13 10:24:48;;;;;;;;;;;;;;;;;;5130024;27;19908;-46
2023/05/13 10:27:14;;;;;;;;;;;;;;;;;;5130253;27;19911;-45
2023/05/13 10:29:40;;;;;;;;;;;;;;;;;;5129920;27;20323;-46
2023/05/13 10:32:06;;;;;;;;;;;;;;;;;;5118839;27;19911;-46
2023/05/13 10:34:32;;;;;;;;;;;;;;;;;;5110227;28;19912;-46
2023/05/13 10:36:59;;;;;;;;;;;;;;;;;;5109477;28;19908;-46
2023/05/13 10:39:25;;;;;;;;;;;;;;;;;;5110175;27;20705;-46
2023/05/13 10:41:51;;;;;;;;;;;;;;;;;;5129279;27;19939;-49
2023/05/13 10:44:17;;;;;;;;;;;;;;;;;;5129449;27;19962;-48
2023/05/13 10:46:43;;;;;;;;;;;;;;;;;;5129966;27;19923;-49
2023/05/13 10:49:09;;;;;;;;;;;;;;;;;;5129547;27;19919;-48
2023/05/13 10:51:35;;;;;;;;;;;;;;;;;;5129800;27;19911;-47
2023/05/13 10:54:02;;;;;;;;;;;;;;;;;;5130539;27;19975;-47
2023/05/13 10:56:28;;;;;;;;;;;;;;;;;;5129630;27;19931;-48
2023/05/13 10:58:54;;;;;;;;;;;;;;;;;;5129583;27;19926;-47
2023/05/13 11:01:20;;;;;;;;;;;;;;;;;;5126698;27;19915;-45
2023/05/13 11:03:46;;;;;;;;;;;;;;;;;;5105556;27;19920;-49
2023/05/13 11:06:13;;;;;;;;;;;;;;;;;;5126395;27;19957;-47
2023/05/13 11:08:39;;;;;;;;;;;;;;;;;;5125821;27;19915;-45
2023/05/13 11:11:04;;;;;;;;;;;;;;;;;;5102497;27;19956;-47
2023/05/13 11:13:30;;;;;;;;;;;;;;;;;;5126594;27;19966;-49
2023/05/13 11:15:56;;;;;;;;;;;;;;;;;;5107419;27;19915;-46
2023/05/13 11:18:22;;;;;;;;;;;;;;;;;;5107574;28;19912;-46
2023/05/13 11:20:48;;;;;;;;;;;;;;;;;;5125953;27;19976;-50
2023/05/13 11:23:14;;;;;;;;;;;;;;;;;;5126346;27;19998;-46
2023/05/13 11:25:40;;;;;;;;;;;;;;;;;;5124812;27;19921;-45
2023/05/13 11:28:07;;;;;;;;;;;;;;;;;;5119244;27;19916;-49
2023/05/13 11:30:33;;;;;;;;;;;;;;;;;;5121280;27;20309;-46
2023/05/13 11:33:01;;;;;;;;;;;;;;;;;;5098526;27;19919;-47
2023/05/13 11:35:27;;;;;;;;;;;;;;;;;;5108503;28;19947;-49
2023/05/13 11:37:53;;;;;;;;;;;;;;;;;;5104979;28;20045;-48
2023/05/13 11:40:19;;;;;;;;;;;;;;;;;;5121507;28;19916;-47
2023/05/13 11:42:45;;;;;;;;;;;;;;;;;;5128483;28;19988;-47
2023/05/13 11:45:11;;;;;;;;;;;;;;;;;;5127044;27;19911;-46
2023/05/13 11:47:37;;;;;;;;;;;;;;;;;;5125875;28;19916;-45
2023/05/13 11:50:03;;;;;;;;;;;;;;;;;;5127166;28;19977;-49
2023/05/13 11:52:28;;;;;;;;;;;;;;;;;;5126354;28;19911;-47
2023/05/13 11:54:55;;;;;;;;;;;;;;;;;;5125501;28;19911;-48
2023/05/13 11:57:21;;;;;;;;;;;;;;;;;;5108181;28;19976;-46
2023/05/13 11:59:47;;;;;;;;;;;;;;;;;;5126632;28;20505;-45
2023/05/13 12:02:14;;;;;;;;;;;;;;;;;;5106379;28;19911;-46
2023/05/13 12:04:39;;;;;;;;;;;;;;;;;;5126967;28;19911;-46
2023/05/13 12:07:06;;;;;;;;;;;;;;;;;;5127286;28;19911;-46
2023/05/13 12:09:32;;;;;;;;;;;;;;;;;;5108086;28;20352;-45
2023/05/13 12:11:58;;;;;;;;;;;;;;;;;;5124923;28;19941;-45
2023/05/13 12:14:26;;;;;;;;;;;;;;;;;;5126611;28;19942;-47
2023/05/13 12:16:52;;;;;;;;;;;;;;;;;;5126120;28;19957;-46
2023/05/13 12:19:18;;;;;;;;;;;;;;;;;;5126530;28;19927;-46
2023/05/13 12:21:44;;;;;;;;;;;;;;;;;;5123980;28;19946;-49
2023/05/13 12:24:10;;;;;;;;;;;;;;;;;;5126665;28;19912;-47
2023/05/13 12:26:36;;;;;;;;;;;;;;;;;;5125528;28;19933;-46
2023/05/13 12:29:01;;;;;;;;;;;;;;;;;;5125536;28;19915;-46
2023/05/13 12:31:27;;;;;;;;;;;;;;;;;;5117925;28;19957;-45
2023/05/13 12:33:53;;;;;;;;;;;;;;;;;;5106790;28;19912;-46
2023/05/13 12:36:20;;;;;;;;;;;;;;;;;;5125887;28;19911;-49
2023/05/13 12:38:46;;;;;;;;;;;;;;;;;;5123968;28;19920;-46
2023/05/13 12:41:12;;;;;;;;;;;;;;;;;;5117165;28;19922;-46
2023/05/13 12:43:38;;;;;;;;;;;;;;;;;;5118982;28;19916;-46
2023/05/13 12:46:04;;;;;;;;;;;;;;;;;;5119201;28;19968;-46
2023/05/13 12:48:30;;;;;;;;;;;;;;;;;;5125677;28;19915;-47
2023/05/13 12:50:56;;;;;;;;;;;;;;;;;;5125589;28;19999;-46
2023/05/13 12:53:21;;;;;;;;;;;;;;;;;;5125134;28;19939;-45
2023/05/13 12:55:47;;;;;;;;;;;;;;;;;;5110053;27;20374;-45
2023/05/13 12:58:13;;;;;;;;;;;;;;;;;;5129704;27;19911;-45
2023/05/13 13:00:39;;;;;;;;;;;;;;;;;;5129327;27;19915;-45
2023/05/13 13:03:06;;;;;;;;;;;;;;;;;;5129585;27;19922;-45
2023/05/13 13:05:32;;;;;;;;;;;;;;;;;;5129144;27;19915;-45
2023/05/13 13:07:59;;;;;;;;;;;;;;;;;;5129026;27;19919;-45
2023/05/13 13:10:25;;;;;;;;;;;;;;;;;;5128451;27;19912;-46
2023/05/13 13:12:51;;;;;;;;;;;;;;;;;;5129180;27;19936;-45
2023/05/13 13:15:17;;;;;;;;;;;;;;;;;;5129218;27;19915;-46
2023/05/13 13:17:43;;;;;;;;;;;;;;;;;;5129087;27;19979;-45
2023/05/13 13:20:09;;;;;;;;;;;;;;;;;;5129004;27;19919;-45
2023/05/13 13:22:36;;;;;;;;;;;;;;;;;;5128724;27;19915;-48
2023/05/13 13:25:02;;;;;;;;;;;;;;;;;;5109939;27;19915;-45
2023/05/13 13:27:28;;;;;;;;;;;;;;;;;;5128842;27;19911;-48
2023/05/13 13:29:54;;;;;;;;;;;;;;;;;;5128693;27;19957;-46
2023/05/13 13:32:20;;;;;;;;;;;;;;;;;;5128920;27;19923;-47
2023/05/13 13:34:46;;;;;;;;;;;;;;;;;;5128432;27;20422;-48
2023/05/13 13:37:12;;;;;;;;;;;;;;;;;;5129461;27;19959;-48
2023/05/13 13:39:38;;;;;;;;;;;;;;;;;;5128374;27;19966;-46
2023/05/13 13:42:05;;;;;;;;;;;;;;;;;;5128667;27;19915;-45
2023/05/13 13:44:30;;;;;;;;;;;;;;;;;;5128033;27;19951;-46
2023/05/13 13:46:56;;;;;;;;;;;;;;;;;;5128079;27;20340;-47
2023/05/13 13:49:23;;;;;;;;;;;;;;;;;;5129231;27;19911;-44
2023/05/13 13:51:49;;;;;;;;;;;;;;;;;;5127899;27;19919;-46
2023/05/13 13:54:15;;;;;;;;;;;;;;;;;;5129963;27;19960;-48
2023/05/13 13:56:41;;;;;;;;;;;;;;;;;;5128860;27;19912;-47
2023/05/13 13:59:07;;;;;;;;;;;;;;;;;;5129516;27;19915;-46
2023/05/13 14:01:33;;;;;;;;;;;;;;;;;;5129886;27;20026;-46
2023/05/13 14:03:59;;;;;;;;;;;;;;;;;;5129581;27;19947;-46
2023/05/13 14:06:26;;;;;;;;;;;;;;;;;;5129388;27;20010;-47
2023/05/13 14:08:53;;;;;;;;;;;;;;;;;;5127964;27;19927;-45
2023/05/13 14:11:19;;;;;;;;;;;;;;;;;;5126796;27;20328;-46
2023/05/13 14:13:45;;;;;;;;;;;;;;;;;;5130044;27;19958;-46
2023/05/13 14:16:11;;;;;;;;;;;;;;;;;;5130658;27;19968;-49
2023/05/13 14:18:39;;;;;;;;;;;;;;;;;;5128521;27;20215;-45
2023/05/13 14:21:05;;;;;;;;;;;;;;;;;;5125758;27;19912;-47
2023/05/13 14:23:31;;;;;;;;;;;;;;;;;;5129447;27;19937;-47
2023/05/13 14:25:57;;;;;;;;;;;;;;;;;;5130549;27;19946;-49
2023/05/13 14:28:23;;;;;;;;;;;;;;;;;;5129162;27;19915;-45
2023/05/13 14:30:48;;;;;;;;;;;;;;;;;;5130190;27;19976;-46
2023/05/13 14:33:14;;;;;;;;;;;;;;;;;;5130858;27;19998;-45
2023/05/13 14:35:40;;;;;;;;;;;;;;;;;;5130474;27;19908;-46
2023/05/13 14:38:07;;;;;;;;;;;;;;;;;;5129991;27;19935;-45
2023/05/13 14:40:33;;;;;;;;;;;;;;;;;;5130188;27;19919;-45
2023/05/13 14:42:59;;;;;;;;;;;;;;;;;;5129917;27;19923;-46
2023/05/13 14:45:25;;;;;;;;;;;;;;;;;;5129154;27;19957;-46
2023/05/13 14:47:52;;;;;;;;;;;;;;;;;;5129362;27;19958;-45
2023/05/13 14:50:18;;;;;;;;;;;;;;;;;;5129981;27;19998;-44
2023/05/13 14:52:44;;;;;;;;;;;;;;;;;;5130341;27;20005;-48
2023/05/13 14:55:10;;;;;;;;;;;;;;;;;;5129164;27;20022;-45
2023/05/13 14:57:36;;;;;;;;;;;;;;;;;;5129047;27;19971;-49
2023/05/13 15:00:02;;;;;;;;;;;;;;;;;;5128257;27;20018;-46
2023/05/13 15:02:28;;;;;;;;;;;;;;;;;;5128293;27;19992;-45
2023/05/13 15:04:54;;;;;;;;;;;;;;;;;;5118384;27;19965;-47
2023/05/13 15:07:20;;;;;;;;;;;;;;;;;;5114039;27;19919;-46
2023/05/13 15:09:46;;;;;;;;;;;;;;;;;;5126927;27;19912;-45
2023/05/13 15:12:12;;;;;;;;;;;;;;;;;;5126034;27;19915;-47
2023/05/13 15:14:38;;;;;;;;;;;;;;;;;;5128901;27;19976;-46
2023/05/13 15:17:04;;;;;;;;;;;;;;;;;;5125732;27;19924;-48
2023/05/13 15:19:30;;;;;;;;;;;;;;;;;;5127066;27;19915;-47
2023/05/13 15:21:56;;;;;;;;;;;;;;;;;;5121827;27;19911;-47
2023/05/13 15:24:22;;;;;;;;;;;;;;;;;;5125086;27;20002;-45
2023/05/13 15:26:48;;;;;;;;;;;;;;;;;;5125080;27;19923;-48
2023/05/13 15:29:15;;;;;;;;;;;;;;;;;;5123190;27;20297;-47
2023/05/13 15:31:42;;;;;;;;;;;;;;;;;;5116391;27;19916;-47
2023/05/13 15:34:08;;;;;;;;;;;;;;;;;;5122265;27;20416;-44
2023/05/13 15:36:34;;;;;;;;;;;;;;;;;;5127509;27;19919;-46
2023/05/13 15:39:00;;;;;;;;;;;;;;;;;;5128861;27;19965;-45
2023/05/13 15:41:26;;;;;;;;;;;;;;;;;;5125553;27;19954;-45
2023/05/13 15:43:52;;;;;;;;;;;;;;;;;;5122157;28;20006;-45
2023/05/13 15:46:20;;;;;;;;;;;;;;;;;;5127792;28;19924;-46
2023/05/13 15:48:46;;;;;;;;;;;;;;;;;;5129296;28;20484;-44
2023/05/13 15:51:12;;;;;;;;;;;;;;;;;;5129533;28;20011;-44
2023/05/13 15:53:38;;;;;;;;;;;;;;;;;;5128439;28;19997;-45
2023/05/13 15:56:04;;;;;;;;;;;;;;;;;;5128054;28;19912;-45
2023/05/13 15:58:30;;;;;;;;;;;;;;;;;;5128183;27;19912;-48
2023/05/13 16:00:56;;;;;;;;;;;;;;;;;;5126940;27;20351;-45
2023/05/13 16:03:22;;;;;;;;;;;;;;;;;;5129066;28;19908;-46
2023/05/13 16:05:48;;;;;;;;;;;;;;;;;;5137236;27;19973;-44
2023/05/13 16:08:14;;;;;;;;;;;;;;;;;;5133219;27;19969;-46
2023/05/13 16:10:40;;;;;;;;;;;;;;;;;;5119871;27;19916;-46
2023/05/13 16:13:06;;;;;;;;;;;;;;;;;;5127794;27;19964;-46
2023/05/13 16:15:32;;;;;;;;;;;;;;;;;;5128602;28;19907;-45
2023/05/13 16:17:58;;;;;;;;;;;;;;;;;;5126894;28;19958;-45
2023/05/13 16:20:24;;;;;;;;;;;;;;;;;;5121025;28;19927;-45
2023/05/13 16:22:50;;;;;;;;;;;;;;;;;;5125926;27;20025;-45
2023/05/13 16:25:16;;;;;;;;;;;;;;;;;;5125907;28;19939;-46
2023/05/13 16:27:43;;;;;;;;;;;;;;;;;;5122733;28;20317;-49
2023/05/13 16:30:09;;;;;;;;;;;;;;;;;;5115574;27;19923;-47
2023/05/13 16:32:35;;;;;;;;;;;;;;;;;;5129972;27;19908;-46
2023/05/13 16:35:02;;;;;;;;;;;;;;;;;;5130108;27;19923;-48
2023/05/13 16:37:28;;;;;;;;;;;;;;;;;;5129873;27;20347;-48
2023/05/13 16:39:55;;;;;;;;;;;;;;;;;;5129813;27;19920;-48
2023/05/13 16:42:21;;;;;;;;;;;;;;;;;;5129579;27;20036;-47
2023/05/13 16:44:46;;;;;;;;;;;;;;;;;;5130008;27;20033;-47
2023/05/13 16:47:12;;;;;;;;;;;;;;;;;;5129092;27;19952;-46
2023/05/13 16:49:40;;;;;;;;;;;;;;;;;;5128313;27;19922;-48
2023/05/13 16:52:06;;;;;;;;;;;;;;;;;;5127789;27;19922;-45
2023/05/13 16:54:33;;;;;;;;;;;;;;;;;;5119104;27;19911;-45
2023/05/13 16:56:58;;;;;;;;;;;;;;;;;;5128803;27;19915;-45
2023/05/13 16:59:24;;;;;;;;;;;;;;;;;;5126390;27;19915;-47
2023/05/13 17:01:51;;;;;;;;;;;;;;;;;;5126697;27;19964;-48
2023/05/13 17:04:17;;;;;;;;;;;;;;;;;;5128295;27;20373;-46
2023/05/13 17:06:43;;;;;;;;;;;;;;;;;;5108086;27;20005;-48
2023/05/13 17:09:08;;;;;;;;;;;;;;;;;;5107315;27;19955;-45
2023/05/13 17:11:34;;;;;;;;;;;;;;;;;;5125659;27;20297;-47
2023/05/13 17:14:00;;;;;;;;;;;;;;;;;;5127058;27;19919;-47
2023/05/13 17:16:27;;;;;;;;;;;;;;;;;;5128758;27;19913;-46
2023/05/13 17:18:53;;;;;;;;;;;;;;;;;;5125328;27;19922;-45
2023/05/13 17:21:20;;;;;;;;;;;;;;;;;;5125246;27;19915;-46
2023/05/13 17:23:46;;;;;;;;;;;;;;;;;;5121058;27;19912;-45
2023/05/13 17:26:12;;;;;;;;;;;;;;;;;;5125502;27;20428;-47
2023/05/13 17:28:39;;;;;;;;;;;;;;;;;;5119285;27;19911;-44
2023/05/13 17:31:05;;;;;;;;;;;;;;;;;;5128121;27;19981;-45
2023/05/13 17:33:31;;;;;;;;;;;;;;;;;;5125775;27;19949;-46
2023/05/13 17:35:57;;;;;;;;;;;;;;;;;;5123346;27;19912;-47
2023/05/13 17:38:23;;;;;;;;;;;;;;;;;;5125268;27;20002;-47
2023/05/13 17:40:49;;;;;;;;;;;;;;;;;;5127318;27;20383;-47
2023/05/13 17:43:15;;;;;;;;;;;;;;;;;;5124101;27;20002;-46
2023/05/13 17:45:41;;;;;;;;;;;;;;;;;;5126545;27;19997;-44
2023/05/13 17:48:07;;;;;;;;;;;;;;;;;;5126660;27;19911;-46
2023/05/13 17:50:33;;;;;;;;;;;;;;;;;;5107717;27;19915;-46
2023/05/13 17:52:59;;;;;;;;;;;;;;;;;;5108481;27;19915;-45
2023/05/13 17:55:24;;;;;;;;;;;;;;;;;;5123312;27;20013;-45
2023/05/13 17:57:51;;;;;;;;;;;;;;;;;;5106805;27;19915;-44
2023/05/13 18:00:17;;;;;;;;;;;;;;;;;;5125199;27;19919;-47
2023/05/13 18:02:44;;;;;;;;;;;;;;;;;;5103019;27;20406;-46
2023/05/13 18:05:10;;;;;;;;;;;;;;;;;;5125173;27;20027;-45
2023/05/13 18:07:36;;;;;;;;;;;;;;;;;;5124193;27;20389;-45
2023/05/13 18:10:02;;;;;;;;;;;;;;;;;;5107795;27;19912;-45
2023/05/13 18:12:29;;;;;;;;;;;;;;;;;;5126503;27;20305;-45
2023/05/13 18:14:56;;;;;;;;;;;;;;;;;;5119860;27;19911;-46
2023/05/13 18:17:22;;;;;;;;;;;;;;;;;;5122984;27;19911;-48
2023/05/13 18:19:49;;;;;;;;;;;;;;;;;;5125474;27;19915;-48
2023/05/13 18:22:15;;;;;;;;;;;;;;;;;;5107602;27;19942;-45
2023/05/13 18:24:42;;;;;;;;;;;;;;;;;;5125315;27;19919;-45
2023/05/13 18:27:08;;;;;;;;;;;;;;;;;;5126605;27;20378;-48
2023/05/13 18:29:35;;;;;;;;;;;;;;;;;;5126362;27;19942;-45
2023/05/13 18:32:01;;;;;;;;;;;;;;;;;;5107257;27;19915;-45
2023/05/13 18:34:27;;;;;;;;;;;;;;;;;;5125820;27;19912;-46
2023/05/13 18:36:53;;;;;;;;;;;;;;;;;;5126245;27;19934;-45
2023/05/13 18:39:22;;;;;;;;;;;;;;;;;;5125685;27;19919;-46
2023/05/13 18:41:48;;;;;;;;;;;;;;;;;;5126248;27;19919;-46
2023/05/13 18:44:14;;;;;;;;;;;;;;;;;;5126454;27;19916;-46
2023/05/13 18:46:40;;;;;;;;;;;;;;;;;;5126375;27;20324;-46
2023/05/13 18:49:07;;;;;;;;;;;;;;;;;;5125655;27;19974;-45
2023/05/13 18:51:32;;;;;;;;;;;;;;;;;;5125115;27;19937;-47
2023/05/13 18:53:58;;;;;;;;;;;;;;;;;;5125744;27;20339;-47
2023/05/13 18:56:24;;;;;;;;;;;;;;;;;;5126076;27;19942;-45
2023/05/13 18:58:51;;;;;;;;;;;;;;;;;;5104520;27;19919;-45
2023/05/13 19:01:17;;;;;;;;;;;;;;;;;;5126334;27;19907;-45
2023/05/13 19:03:43;;;;;;;;;;;;;;;;;;5106085;27;20488;-46
2023/05/13 19:06:09;;;;;;;;;;;;;;;;;;5105759;28;20449;-44
2023/05/13 19:08:36;;;;;;;;;;;;;;;;;;5111612;27;19915;-49
2023/05/13 19:11:02;;;;;;;;;;;;;;;;;;5124668;27;19916;-46
2023/05/13 19:13:28;;;;;;;;;;;;;;;;;;5124273;27;19911;-47
2023/05/13 19:15:55;;;;;;;;;;;;;;;;;;5125203;27;19911;-44
2023/05/13 19:18:21;;;;;;;;;;;;;;;;;;5106564;27;20299;-44
2023/05/13 19:20:46;;;;;;;;;;;;;;;;;;5122684;27;19935;-44
2023/05/13 19:23:12;;;;;;;;;;;;;;;;;;5124961;27;19911;-44
2023/05/13 19:25:41;;;;;;;;;;;;;;;;;;5125943;27;19923;-48
2023/05/13 19:28:08;;;;;;;;;;;;;;;;;;5125136;27;20290;-45
2023/05/13 19:30:35;;;;;;;;;;;;;;;;;;5124372;27;19911;-48
2023/05/13 19:33:02;;;;;;;;;;;;;;;;;;5125266;27;19915;-46
2023/05/13 19:35:29;;;;;;;;;;;;;;;;;;5123902;27;19912;-47
2023/05/13 19:37:55;;;;;;;;;;;;;;;;;;5124864;27;19922;-48
2023/05/13 19:40:21;;;;;;;;;;;;;;;;;;5125012;27;20256;-46
2023/05/13 19:42:48;;;;;;;;;;;;;;;;;;5124992;27;19911;-45
2023/05/13 19:45:14;;;;;;;;;;;;;;;;;;5123967;28;19990;-45
2023/05/13 19:47:41;;;;;;;;;;;;;;;;;;5114434;28;19938;-45
2023/05/13 19:50:07;;;;;;;;;;;;;;;;;;5106276;28;19947;-46
2023/05/13 19:52:33;;;;;;;;;;;;;;;;;;5111304;28;19915;-45
2023/05/13 19:54:59;;;;;;;;;;;;;;;;;;5123990;28;19912;-44
2023/05/13 19:57:26;;;;;;;;;;;;;;;;;;5125154;28;19915;-48
2023/05/13 19:59:52;;;;;;;;;;;;;;;;;;5106613;28;19958;-45
2023/05/13 20:02:18;;;;;;;;;;;;;;;;;;5118242;28;19990;-44
2023/05/13 20:04:44;;;;;;;;;;;;;;;;;;5107454;27;19911;-44
2023/05/13 20:07:09;;;;;;;;;;;;;;;;;;5129882;27;19954;-45
2023/05/13 20:09:36;;;;;;;;;;;;;;;;;;5110774;27;20010;-46
2023/05/13 20:12:03;;;;;;;;;;;;;;;;;;5122228;27;20418;-45
2023/05/13 20:14:28;;;;;;;;;;;;;;;;;;5129530;27;19918;-47
2023/05/13 20:16:56;;;;;;;;;;;;;;;;;;5128992;27;20340;-45
2023/05/13 20:19:22;;;;;;;;;;;;;;;;;;5128671;27;19930;-45
2023/05/13 20:21:49;;;;;;;;;;;;;;;;;;5125967;27;19959;-46
2023/05/13 20:24:15;;;;;;;;;;;;;;;;;;5128800;27;19918;-46
2023/05/13 20:26:41;;;;;;;;;;;;;;;;;;5130175;27;19915;-45
2023/05/13 20:29:07;;;;;;;;;;;;;;;;;;5110514;27;19994;-45
2023/05/13 20:31:33;;;;;;;;;;;;;;;;;;5120869;27;19912;-46
2023/05/13 20:33:59;;;;;;;;;;;;;;;;;;5125904;27;20378;-48
2023/05/13 20:36:25;;;;;;;;;;;;;;;;;;5126063;27;20297;-45
2023/05/13 20:38:51;;;;;;;;;;;;;;;;;;5128681;27;19919;-45
2023/05/13 20:41:17;;;;;;;;;;;;;;;;;;5126163;27;19941;-46
2023/05/13 20:43:43;;;;;;;;;;;;;;;;;;5129216;27;20354;-46
2023/05/13 20:46:15;;;;;;;;;;;;;;;;;;5128634;27;20220;-45
2023/05/13 20:48:41;;;;;;;;;;;;;;;;;;5110339;27;19915;-44
2023/05/13 20:51:07;;;;;;;;;;;;;;;;;;5122314;27;20356;-45
2023/05/13 20:53:33;;;;;;;;;;;;;;;;;;5114968;27;19918;-47
2023/05/13 20:55:59;;;;;;;;;;;;;;;;;;5129256;27;19911;-44
2023/05/13 20:58:25;;;;;;;;;;;;;;;;;;5107937;27;19936;-46
2023/05/13 21:00:52;;;;;;;;;;;;;;;;;;5128828;27;19989;-45
2023/05/13 21:03:18;;;;;;;;;;;;;;;;;;5126838;27;19911;-44
2023/05/13 21:05:44;;;;;;;;;;;;;;;;;;5127967;27;19919;-46
2023/05/13 21:08:12;;;;;;;;;;;;;;;;;;5122839;27;19923;-44
2023/05/13 21:10:38;;;;;;;;;;;;;;;;;;5109765;27;19916;-44
2023/05/13 21:13:05;;;;;;;;;;;;;;;;;;5127425;27;20291;-44
2023/05/13 21:15:30;;;;;;;;;;;;;;;;;;5109706;27;19915;-44
2023/05/13 21:17:57;;;;;;;;;;;;;;;;;;5109607;27;19919;-44
2023/05/13 21:20:24;;;;;;;;;;;;;;;;;;5125399;27;20322;-45
2023/05/13 21:22:50;;;;;;;;;;;;;;;;;;5108970;27;19923;-45
2023/05/13 21:25:16;;;;;;;;;;;;;;;;;;5124363;27;20290;-44
2023/05/13 21:27:41;;;;;;;;;;;;;;;;;;5128354;27;19994;-44
2023/05/13 21:30:08;;;;;;;;;;;;;;;;;;5128512;27;19955;-44
2023/05/13 21:32:34;;;;;;;;;;;;;;;;;;5125807;27;19920;-43
2023/05/13 21:35:00;;;;;;;;;;;;;;;;;;5116261;27;19918;-45
2023/05/13 21:37:26;;;;;;;;;;;;;;;;;;5127178;27;19918;-44
2023/05/13 21:39:52;;;;;;;;;;;;;;;;;;5127442;27;19923;-44
2023/05/13 21:42:18;;;;;;;;;;;;;;;;;;5110074;27;19920;-44
2023/05/13 21:44:44;;;;;;;;;;;;;;;;;;5116983;27;19922;-44